createdAt,value
2018-06-10T00:01:17.583Z,84.80
2018-06-10T00:03:47.315Z,85.90
2018-06-10T00:06:16.873Z,86.30
2018-06-10T00:08:46.527Z,86.50
2018-06-10T00:11:16.155Z,87.40
2018-06-10T00:13:45.767Z,88.20
2018-06-10T00:16:15.435Z,89.30
2018-06-10T00:18:45.185Z,89.60
2018-06-10T00:21:14.747Z,90.00
2018-06-10T00:23:44.327Z,90.70
2018-06-10T00:26:14.091Z,90.80
2018-06-10T00:31:18.255Z,91.50
2018-06-10T00:36:16.887Z,91.70
2018-06-10T00:38:46.548Z,92.30
2018-06-10T00:41:16.127Z,92.60
2018-06-10T00:43:45.842Z,92.10
2018-06-10T00:46:15.508Z,92.50
2018-06-10T00:48:45.096Z,92.40
2018-06-10T00:51:14.771Z,92.50
2018-06-10T00:53:45.596Z,92.60
2018-06-10T00:56:26.376Z,92.90
2018-06-10T00:58:56.691Z,92.60
2018-06-10T01:01:26.309Z,92.50
2018-06-10T01:03:55.927Z,92.70
2018-06-10T01:06:25.601Z,93.10
2018-06-10T01:08:55.191Z,93.40
2018-06-10T01:11:24.812Z,92.50
2018-06-10T01:13:54.455Z,92.70
2018-06-10T01:16:24.079Z,92.30
2018-06-10T01:21:23.008Z,92.50
2018-06-10T01:23:52.693Z,92.50
2018-06-10T01:28:56.663Z,92.60
2018-06-10T01:31:27.319Z,92.90
2018-06-10T01:33:56.941Z,92.60
2018-06-10T01:38:55.715Z,92.80
2018-06-10T01:41:25.317Z,92.60
2018-06-10T01:43:55.025Z,93.20
2018-06-10T01:46:24.620Z,92.50
2018-06-10T01:51:23.398Z,92.60
2018-06-10T01:53:53.015Z,93.00
2018-06-10T01:56:22.655Z,93.00
2018-06-10T01:58:52.900Z,93.00
2018-06-10T02:01:22.555Z,94.00
2018-06-10T02:03:52.262Z,93.90
2018-06-10T02:06:21.874Z,93.00
2018-06-10T02:08:51.486Z,93.20
2018-06-10T02:11:21.174Z,92.70
2018-06-10T02:13:50.902Z,93.90
2018-06-10T02:16:20.530Z,93.80
2018-06-10T02:21:19.402Z,93.40
2018-06-10T02:23:49.074Z,94.10
2018-06-10T02:26:18.669Z,94.10
2018-06-10T02:28:48.253Z,93.80
2018-06-10T02:31:17.918Z,93.90
2018-06-10T02:33:47.503Z,93.70
2018-06-10T02:36:17.196Z,93.60
2018-06-10T02:38:46.859Z,94.10
2018-06-10T02:41:16.469Z,94.00
2018-06-10T02:43:46.087Z,94.00
2018-06-10T02:46:15.699Z,94.00
2018-06-10T02:48:45.265Z,94.00
2018-06-10T02:51:14.932Z,94.90
2018-06-10T02:53:44.617Z,94.70
2018-06-10T02:56:14.260Z,94.50
2018-06-10T02:58:43.863Z,95.10
2018-06-10T03:06:11.704Z,96.00
2018-06-10T03:08:41.312Z,96.20
2018-06-10T03:11:10.976Z,96.80
2018-06-10T03:16:09.694Z,96.60
2018-06-10T03:18:39.375Z,96.30
2018-06-10T03:26:07.283Z,96.20
2018-06-10T03:28:36.851Z,96.00
2018-06-10T03:31:06.628Z,95.60
2018-06-10T03:33:36.288Z,96.00
2018-06-10T03:36:05.944Z,96.20
2018-06-10T03:38:35.535Z,96.10
2018-06-10T03:43:34.367Z,96.10
2018-06-10T03:46:04.047Z,95.90
2018-06-10T03:51:02.719Z,95.70
2018-06-10T03:53:32.343Z,95.70
2018-06-10T03:56:01.906Z,96.00
2018-06-10T03:58:31.494Z,95.90
2018-06-10T04:01:01.119Z,96.20
2018-06-10T04:03:30.751Z,95.80
2018-06-10T04:06:00.330Z,95.50
2018-06-10T04:08:29.992Z,94.90
2018-06-10T04:10:59.606Z,95.50
2018-06-10T04:15:58.326Z,95.60
2018-06-10T04:20:57.443Z,95.60
2018-06-10T04:23:27.986Z,95.20
2018-06-10T04:25:57.587Z,95.20
2018-06-10T04:28:27.171Z,95.40
2018-06-10T04:30:57.082Z,96.00
2018-06-10T04:35:56.542Z,96.70
2018-06-10T04:38:26.126Z,96.40
2018-06-10T04:40:55.736Z,96.10
2018-06-10T04:45:54.478Z,96.00
2018-06-10T04:48:24.043Z,96.10
2018-06-10T04:53:22.751Z,96.40
2018-06-10T04:55:52.362Z,96.40
2018-06-10T04:58:22.068Z,96.60
2018-06-10T05:00:51.887Z,96.60
2018-06-10T05:03:21.560Z,96.30
2018-06-10T05:05:51.212Z,96.00
2018-06-10T05:08:20.792Z,95.90
2018-06-10T05:10:50.395Z,96.20
2018-06-10T05:13:20.068Z,96.20
2018-06-10T05:15:49.624Z,96.20
2018-06-10T05:18:19.250Z,95.90
2018-06-10T05:20:48.924Z,95.70
2018-06-10T05:25:47.724Z,95.50
2018-06-10T05:28:17.380Z,95.10
2018-06-10T05:30:46.960Z,95.10
2018-06-10T05:35:46.076Z,94.80
2018-06-10T05:50:41.753Z,94.40
2018-06-10T05:53:11.356Z,95.20
2018-06-10T05:55:41.000Z,94.50
2018-06-10T05:58:10.592Z,94.60
2018-06-10T06:00:40.218Z,94.20
2018-06-10T06:03:10.625Z,94.30
2018-06-10T06:05:40.216Z,94.10
2018-06-10T06:08:09.894Z,94.60
2018-06-10T06:10:39.552Z,94.20
2018-06-10T06:13:09.820Z,92.50
2018-06-10T06:15:39.478Z,91.70
2018-06-10T06:20:38.168Z,91.70
2018-06-10T06:23:08.660Z,92.80
2018-06-10T06:25:38.235Z,92.10
2018-06-10T06:28:08.004Z,91.90
2018-06-10T06:30:37.576Z,92.30
2018-06-10T06:33:07.747Z,92.00
2018-06-10T06:35:37.395Z,91.20
2018-06-10T06:38:07.001Z,91.70
2018-06-10T06:40:36.599Z,91.70
2018-06-10T06:45:35.371Z,91.40
2018-06-10T06:48:04.980Z,91.10
2018-06-10T06:50:34.659Z,90.80
2018-06-10T06:53:04.531Z,90.40
2018-06-10T06:58:04.063Z,90.00
2018-06-10T07:00:33.631Z,89.30
2018-06-10T07:03:03.345Z,87.80
2018-06-10T07:05:32.951Z,88.00
2018-06-10T07:08:03.575Z,87.80
2018-06-10T07:10:33.143Z,87.40
2018-06-10T07:13:02.723Z,86.60
2018-06-10T07:15:32.399Z,89.20
2018-06-10T07:18:02.007Z,89.00
2018-06-10T07:20:31.611Z,89.80
2018-06-10T07:23:01.259Z,90.00
2018-06-10T07:25:30.857Z,90.00
2018-06-10T07:30:30.750Z,90.50
2018-06-10T07:33:00.354Z,90.90
2018-06-10T07:35:29.943Z,89.50
2018-06-10T07:37:59.516Z,89.10
2018-06-10T07:40:29.256Z,88.90
2018-06-10T07:42:59.067Z,90.00
2018-06-10T07:45:28.795Z,87.90
2018-06-10T07:47:58.396Z,87.40
2018-06-10T07:50:28.047Z,86.20
2018-06-10T07:52:57.775Z,86.00
2018-06-10T07:55:27.483Z,86.50
2018-06-10T07:57:57.183Z,84.40
2018-06-10T08:00:26.843Z,83.50
2018-06-10T08:02:56.483Z,82.60
2018-06-10T08:05:26.245Z,82.90
2018-06-10T08:07:55.821Z,82.30
2018-06-10T08:10:25.392Z,81.50
2018-06-10T08:12:55.051Z,81.70
2018-06-10T08:15:24.746Z,80.40
2018-06-10T08:17:54.343Z,80.10
2018-06-10T08:20:23.889Z,81.10
2018-06-10T08:25:22.899Z,80.10
2018-06-10T08:30:21.587Z,80.10
2018-06-10T08:35:21.267Z,80.60
2018-06-10T08:37:50.883Z,78.30
2018-06-10T08:40:20.525Z,78.40
2018-06-10T08:42:50.173Z,78.10
2018-06-10T08:45:20.056Z,77.90
2018-06-10T08:47:49.675Z,77.80
2018-06-10T08:50:19.349Z,78.30
2018-06-10T08:52:49.158Z,78.10
2018-06-10T08:55:18.781Z,73.80
2018-06-10T08:57:48.474Z,73.20
2018-06-10T09:00:18.092Z,72.90
2018-06-10T09:02:47.742Z,70.20
2018-06-10T09:05:17.452Z,69.60
2018-06-10T09:07:47.679Z,72.00
2018-06-10T09:10:17.438Z,72.90
2018-06-10T09:12:47.150Z,71.50
2018-06-10T09:15:16.757Z,70.10
2018-06-10T09:17:46.378Z,71.40
2018-06-10T09:20:16.095Z,71.00
2018-06-10T09:22:45.710Z,70.00
2018-06-10T09:25:15.330Z,71.00
2018-06-10T09:27:44.995Z,68.60
2018-06-10T09:30:14.621Z,64.30
2018-06-10T09:37:42.467Z,64.90
2018-06-10T09:40:12.140Z,63.60
2018-06-10T09:42:41.715Z,62.20
2018-06-10T09:45:12.266Z,64.70
2018-06-10T09:47:41.988Z,61.00
2018-06-10T09:50:11.652Z,63.10
2018-06-10T09:52:41.279Z,60.80
2018-06-10T09:55:11.207Z,61.20
2018-06-10T09:57:40.704Z,61.40
2018-06-10T10:00:10.503Z,60.20
2018-06-10T10:02:40.344Z,60.90
2018-06-10T10:05:10.264Z,59.70
2018-06-10T10:07:39.984Z,60.30
2018-06-10T10:10:09.781Z,61.00
2018-06-10T10:12:39.427Z,60.50
2018-06-10T10:15:09.089Z,60.80
2018-06-10T10:17:38.723Z,57.80
2018-06-10T10:25:06.828Z,57.10
2018-06-10T10:33:00.982Z,56.80
2018-06-10T10:35:30.821Z,55.90
2018-06-10T10:38:01.151Z,57.60
2018-06-10T10:55:09.413Z,54.40
2018-06-10T10:57:39.781Z,54.40
2018-06-10T11:00:12.565Z,55.00
2018-06-10T11:05:29.567Z,52.70
2018-06-10T11:08:00.985Z,50.20
2018-06-10T11:10:39.839Z,50.80
2018-06-10T11:13:20.256Z,54.30
2018-06-10T11:15:51.414Z,49.90
2018-06-10T11:18:32.852Z,49.60
2018-06-10T11:21:07.080Z,49.10
2018-06-10T11:23:37.082Z,47.50
2018-06-10T11:26:06.870Z,47.80
2018-06-10T11:28:36.559Z,47.50
2018-06-10T11:33:35.438Z,46.90
2018-06-10T11:41:05.318Z,48.20
2018-06-10T11:43:34.840Z,46.30
2018-06-10T11:46:06.364Z,46.20
2018-06-10T11:48:36.298Z,46.80
2018-06-10T11:51:05.932Z,46.50
2018-06-10T11:53:35.592Z,48.20
2018-06-10T11:58:35.476Z,45.40
2018-06-10T12:01:05.120Z,44.20
2018-06-10T12:03:34.857Z,45.50
2018-06-10T12:06:04.582Z,45.30
2018-06-10T12:08:34.291Z,43.10
2018-06-10T12:11:03.920Z,45.10
2018-06-10T12:13:33.635Z,43.20
2018-06-10T12:16:03.285Z,44.80
2018-06-10T12:18:33.047Z,43.30
2018-06-10T12:21:02.694Z,43.30
2018-06-10T12:23:32.359Z,44.10
2018-06-10T12:26:07.941Z,45.00
2018-06-10T12:28:37.771Z,44.90
2018-06-10T12:31:07.719Z,44.60
2018-06-10T12:33:37.370Z,44.80
2018-06-10T12:36:07.214Z,45.20
2018-06-10T12:38:36.887Z,45.10
2018-06-10T12:41:06.876Z,45.50
2018-06-10T12:43:37.384Z,45.40
2018-06-10T12:46:07.134Z,45.30
2018-06-10T12:48:36.915Z,45.50
2018-06-10T12:51:06.621Z,45.30
2018-06-10T12:53:36.285Z,45.30
2018-06-10T12:56:07.115Z,45.70
2018-06-10T12:58:41.323Z,45.40
2018-06-10T13:01:11.012Z,46.40
2018-06-10T13:03:40.775Z,45.80
2018-06-10T13:06:10.385Z,44.80
2018-06-10T13:08:40.127Z,45.00
2018-06-10T13:11:09.939Z,44.30
2018-06-10T13:13:39.778Z,44.90
2018-06-10T13:16:09.463Z,44.70
2018-06-10T13:18:39.131Z,44.60
2018-06-10T13:23:39.163Z,44.60
2018-06-10T13:26:08.887Z,44.90
2018-06-10T13:28:38.488Z,45.10
2018-06-10T13:31:08.295Z,45.40
2018-06-10T13:33:37.988Z,44.80
2018-06-10T13:36:07.695Z,45.00
2018-06-10T13:38:37.308Z,44.70
2018-06-10T13:41:07.047Z,44.60
2018-06-10T13:46:06.080Z,43.90
2018-06-10T13:51:05.381Z,45.80
2018-06-10T13:53:35.125Z,45.40
2018-06-10T13:56:04.901Z,45.30
2018-06-10T14:03:33.374Z,46.00
2018-06-10T14:06:03.971Z,46.20
2018-06-10T14:08:34.198Z,46.40
2018-06-10T14:11:05.243Z,46.20
2018-06-10T14:13:35.905Z,45.60
2018-06-10T14:16:08.447Z,44.20
2018-06-10T14:18:42.845Z,44.90
2018-06-10T14:21:13.361Z,44.70
2018-06-10T14:23:43.447Z,45.00
2018-06-10T14:26:13.674Z,44.70
2018-06-10T14:28:43.655Z,44.90
2018-06-10T14:31:14.370Z,45.50
2018-06-10T14:33:45.252Z,45.20
2018-06-10T14:36:15.090Z,44.40
2018-06-10T14:38:45.667Z,44.60
2018-06-10T14:41:15.523Z,44.60
2018-06-10T14:43:49.830Z,44.70
2018-06-10T14:46:22.327Z,44.40
2018-06-10T14:48:52.499Z,44.80
2018-06-10T14:51:32.689Z,44.70
2018-06-10T14:54:03.782Z,45.00
2018-06-10T14:56:38.073Z,45.80
2018-06-10T14:59:08.712Z,45.50
2018-06-10T15:01:38.554Z,45.70
2018-06-10T15:04:09.688Z,45.60
2018-06-10T15:09:33.163Z,45.00
2018-06-10T15:12:13.746Z,44.80
2018-06-10T15:14:46.889Z,44.70
2018-06-10T15:17:17.525Z,43.20
2018-06-10T15:19:48.553Z,43.40
2018-06-10T15:22:18.195Z,43.10
2018-06-10T15:27:17.094Z,41.80
2018-06-10T15:29:46.715Z,42.80
2018-06-10T15:32:16.419Z,41.90
2018-06-10T15:37:15.531Z,43.40
2018-06-10T15:42:14.292Z,43.00
2018-06-10T15:44:43.904Z,41.10
2018-06-10T15:47:13.683Z,41.20
2018-06-10T15:49:43.343Z,41.90
2018-06-10T15:52:12.908Z,41.00
2018-06-10T15:54:42.615Z,41.20
2018-06-10T15:57:12.293Z,41.70
2018-06-10T15:59:42.168Z,41.20
2018-06-10T16:02:11.858Z,41.00
2018-06-10T16:04:41.615Z,40.90
2018-06-10T16:07:11.200Z,41.30
2018-06-10T16:09:40.908Z,41.80
2018-06-10T16:12:11.210Z,51.50
2018-06-10T16:14:40.911Z,44.50
2018-06-10T16:17:10.533Z,45.50
2018-06-10T16:19:40.415Z,43.80
2018-06-10T16:22:10.089Z,44.30
2018-06-10T16:24:39.793Z,44.50
2018-06-10T16:27:09.404Z,44.70
2018-06-10T16:29:39.048Z,44.60
2018-06-10T16:32:08.695Z,45.20
2018-06-10T16:34:38.367Z,47.00
2018-06-10T16:37:07.933Z,47.30
2018-06-10T16:39:37.575Z,48.90
2018-06-10T16:44:36.403Z,51.60
2018-06-10T16:47:06.052Z,52.50
2018-06-10T16:49:35.727Z,53.40
2018-06-10T16:52:05.896Z,54.10
2018-06-10T16:54:35.579Z,54.90
2018-06-10T16:57:05.356Z,56.20
2018-06-10T16:59:35.069Z,58.70
2018-06-10T17:02:04.862Z,58.80
2018-06-10T17:04:34.555Z,57.80
2018-06-10T17:07:04.231Z,56.50
2018-06-10T17:09:34.084Z,56.40
2018-06-10T17:14:32.938Z,55.40
2018-06-10T17:17:02.693Z,55.40
2018-06-10T17:19:33.101Z,55.20
2018-06-10T17:22:02.969Z,55.50
2018-06-10T17:24:32.637Z,56.10
2018-06-10T17:27:02.243Z,57.20
2018-06-10T17:29:31.963Z,58.00
2018-06-10T17:34:31.437Z,60.20
2018-06-10T17:37:01.277Z,61.60
2018-06-10T17:39:31.273Z,63.10
2018-06-10T17:42:01.027Z,64.70
2018-06-10T17:44:30.847Z,66.40
2018-06-10T17:47:00.486Z,67.70
2018-06-10T17:49:30.269Z,69.30
2018-06-10T17:51:59.851Z,68.90
2018-06-10T17:54:29.523Z,70.00
2018-06-10T17:56:59.254Z,69.70
2018-06-10T17:59:29.602Z,72.00
2018-06-10T18:04:28.286Z,74.40
2018-06-10T18:06:57.927Z,74.40
2018-06-10T18:09:27.611Z,74.20
2018-06-10T18:11:57.297Z,74.40
2018-06-10T18:14:26.967Z,73.80
2018-06-10T18:19:26.294Z,75.80
2018-06-10T18:21:56.559Z,75.60
2018-06-10T18:24:26.275Z,75.50
2018-06-10T18:26:56.279Z,75.70
2018-06-10T18:29:25.888Z,74.70
2018-06-10T18:31:55.548Z,75.70
2018-06-10T18:34:25.198Z,77.00
2018-06-10T18:39:24.809Z,78.00
2018-06-10T18:41:54.736Z,79.80
2018-06-10T18:44:24.401Z,80.70
2018-06-10T18:49:23.154Z,82.10
2018-06-10T18:51:52.888Z,81.60
2018-06-10T18:54:22.528Z,83.40
2018-06-10T18:56:52.182Z,85.50
2018-06-10T18:59:21.791Z,84.90
2018-06-10T19:01:51.509Z,87.30
2018-06-10T19:04:23.567Z,90.20
2018-06-10T19:07:04.470Z,90.20
2018-06-10T19:09:34.288Z,90.70
2018-06-10T19:12:04.805Z,90.80
2018-06-10T19:14:34.427Z,90.30
2018-06-10T19:17:04.861Z,91.60
2018-06-10T19:19:34.613Z,91.80
2018-06-10T19:22:04.498Z,91.60
2018-06-10T19:24:34.126Z,93.00
2018-06-10T19:27:03.795Z,94.60
2018-06-10T19:29:39.084Z,93.50
2018-06-10T19:32:30.195Z,95.20
2018-06-10T19:37:50.041Z,94.70
2018-06-10T19:40:24.726Z,97.30
2018-06-10T19:43:01.807Z,95.20
2018-06-10T19:48:11.546Z,96.00
2018-06-10T19:50:41.137Z,96.90
2018-06-10T19:53:10.834Z,97.80
2018-06-10T19:55:40.721Z,97.80
2018-06-10T19:58:10.387Z,96.60
2018-06-10T20:00:40.111Z,98.10
2018-06-10T20:03:09.730Z,98.60
2018-06-10T20:05:39.377Z,99.90
2018-06-10T20:08:09.078Z,96.80
2018-06-10T20:10:38.713Z,99.90
2018-06-10T20:13:08.509Z,98.40
2018-06-10T20:15:41.053Z,98.20
2018-06-10T20:18:10.747Z,97.90
2018-06-10T20:20:41.517Z,98.00
2018-06-10T20:23:11.248Z,97.80
2018-06-10T20:25:40.901Z,97.60
2018-06-10T20:28:10.494Z,97.20
2018-06-10T20:30:40.722Z,97.30
2018-06-10T20:33:10.298Z,99.00
2018-06-10T20:35:39.881Z,98.20
2018-06-10T20:38:09.547Z,98.20
